createdAt,value
2022-10-08T00:03:02.852Z,99.90
2022-10-08T00:07:25.619Z,99.90
2022-10-08T00:11:47.928Z,99.90
2022-10-08T00:16:17.026Z,99.90
2022-10-08T00:20:39.483Z,99.90
2022-10-08T00:25:01.823Z,99.90
2022-10-08T00:29:24.343Z,99.90
2022-10-08T00:33:50.364Z,99.90
2022-10-08T00:38:12.955Z,99.90
2022-10-08T00:42:35.363Z,99.90
2022-10-08T00:46:57.967Z,99.90
2022-10-08T00:51:20.823Z,99.90
2022-10-08T00:55:44.142Z,99.90
2022-10-08T01:00:15.724Z,99.90
2022-10-08T01:04:40.003Z,99.90
2022-10-08T01:09:22.104Z,99.90
2022-10-08T01:13:52.383Z,99.90
2022-10-08T01:18:43.363Z,99.90
2022-10-08T01:23:48.765Z,99.90
2022-10-08T01:28:50.226Z,99.90
2022-10-08T01:33:40.104Z,99.90
2022-10-08T01:38:07.377Z,99.90
2022-10-08T01:42:32.603Z,99.90
2022-10-08T01:46:59.205Z,99.90
2022-10-08T01:51:41.147Z,99.90
2022-10-08T01:56:06.825Z,99.90
2022-10-08T02:00:29.653Z,99.90
2022-10-08T02:04:55.504Z,99.90
2022-10-08T02:09:18.363Z,99.90
2022-10-08T02:13:41.483Z,99.90
2022-10-08T02:18:10.765Z,99.90
2022-10-08T02:22:45.252Z,99.90
2022-10-08T02:27:11.663Z,99.90
2022-10-08T02:31:52.561Z,99.90
2022-10-08T02:36:22.087Z,99.90
2022-10-08T02:40:50.007Z,99.90
2022-10-08T02:45:31.160Z,99.90
2022-10-08T02:50:03.184Z,99.90
2022-10-08T02:54:25.206Z,99.90
2022-10-08T02:58:48.443Z,99.90
2022-10-08T03:03:26.324Z,99.90
2022-10-08T03:07:52.246Z,99.90
2022-10-08T03:12:14.452Z,99.90
2022-10-08T03:16:48.295Z,99.90
2022-10-08T03:21:14.711Z,99.90
2022-10-08T03:25:37.085Z,99.90
2022-10-08T03:29:59.385Z,99.90
2022-10-08T03:34:21.862Z,99.90
2022-10-08T03:38:44.265Z,99.90
2022-10-08T03:43:06.435Z,99.90
2022-10-08T03:47:28.903Z,99.90
2022-10-08T03:51:51.063Z,99.90
2022-10-08T03:56:20.356Z,99.90
2022-10-08T04:00:43.183Z,99.90
2022-10-08T04:05:06.424Z,99.90
2022-10-08T04:09:28.685Z,99.90
2022-10-08T04:13:50.724Z,99.90
2022-10-08T04:18:14.158Z,99.90
2022-10-08T04:22:36.703Z,99.90
2022-10-08T04:26:59.043Z,99.90
2022-10-08T04:31:23.654Z,99.90
2022-10-08T04:35:46.063Z,99.90
2022-10-08T04:40:09.723Z,99.90
2022-10-08T04:44:31.823Z,99.90
2022-10-08T04:48:56.635Z,99.90
2022-10-08T04:53:19.005Z,99.90
2022-10-08T04:57:41.412Z,99.90
2022-10-08T05:02:03.916Z,99.90
2022-10-08T05:06:29.864Z,99.90
2022-10-08T05:10:52.304Z,99.90
2022-10-08T05:15:14.903Z,99.90
2022-10-08T05:19:37.151Z,99.90
2022-10-08T05:24:07.183Z,99.90
2022-10-08T05:28:30.077Z,99.90
2022-10-08T05:32:52.484Z,99.90
2022-10-08T05:37:14.896Z,99.90
2022-10-08T05:41:38.567Z,99.90
2022-10-08T05:46:00.846Z,99.90
2022-10-08T05:50:23.343Z,99.90
2022-10-08T05:54:45.624Z,99.90
2022-10-08T05:59:10.606Z,99.90
2022-10-08T06:03:33.143Z,99.90
2022-10-08T06:07:58.023Z,99.90
2022-10-08T06:12:20.663Z,99.90
2022-10-08T06:16:43.123Z,99.90
2022-10-08T06:21:12.620Z,99.90
2022-10-08T06:25:37.843Z,99.90
2022-10-08T06:30:00.161Z,99.90
2022-10-08T06:34:22.584Z,99.90
2022-10-08T06:38:59.697Z,99.90
2022-10-08T06:43:22.147Z,99.90
2022-10-08T06:47:44.664Z,99.90
2022-10-08T06:52:06.943Z,99.90
2022-10-08T06:56:29.644Z,99.90
2022-10-08T07:01:06.050Z,99.90
2022-10-08T07:05:28.525Z,99.90
2022-10-08T07:09:50.883Z,99.90
2022-10-08T07:14:13.484Z,99.90
2022-10-08T07:18:37.427Z,99.90
2022-10-08T07:22:59.908Z,99.90
2022-10-08T07:27:22.284Z,99.90
2022-10-08T07:31:44.851Z,99.90
2022-10-08T07:36:16.091Z,99.90
2022-10-08T07:40:39.163Z,99.90
2022-10-08T07:45:01.545Z,99.90
2022-10-08T07:49:24.230Z,99.90
2022-10-08T07:53:47.063Z,99.90
2022-10-08T07:58:09.567Z,99.90
2022-10-08T08:02:32.150Z,99.90
2022-10-08T08:06:54.743Z,99.90
2022-10-08T08:11:20.543Z,99.90
2022-10-08T08:15:46.336Z,99.10
2022-10-08T08:20:17.869Z,98.80
2022-10-08T08:24:40.623Z,98.80
2022-10-08T08:29:07.456Z,99.80
2022-10-08T08:51:21.893Z,99.90
2022-10-08T08:55:47.474Z,99.90
2022-10-08T09:00:24.584Z,99.90
2022-10-08T09:05:01.078Z,99.90
2022-10-08T09:09:49.713Z,99.90
2022-10-08T09:14:17.846Z,99.90
2022-10-08T09:18:49.943Z,99.90
2022-10-08T09:23:22.923Z,99.90
2022-10-08T09:27:55.663Z,99.90
2022-10-08T09:32:22.612Z,99.90
2022-10-08T09:37:06.463Z,99.90
2022-10-08T09:41:30.546Z,99.90
2022-10-08T09:45:54.887Z,99.90
2022-10-08T09:50:19.921Z,99.90
2022-10-08T09:54:49.262Z,99.90
2022-10-08T09:59:25.791Z,99.90
2022-10-08T10:03:57.899Z,97.10
2022-10-08T10:08:52.806Z,96.70
2022-10-08T10:13:38.160Z,97.10
2022-10-08T10:18:11.784Z,97.50
2022-10-08T10:23:02.084Z,98.40
2022-10-08T10:27:38.963Z,98.30
2022-10-08T10:32:14.394Z,96.70
2022-10-08T10:36:46.004Z,94.50
2022-10-08T10:41:18.893Z,91.70
2022-10-08T10:45:46.819Z,91.20
2022-10-08T10:50:23.104Z,91.90
2022-10-08T10:55:26.584Z,91.90
2022-10-08T11:00:00.596Z,92.30
2022-10-08T11:04:59.391Z,91.40
2022-10-08T11:09:55.136Z,89.30
2022-10-08T11:14:39.104Z,84.20
2022-10-08T11:19:10.843Z,86.20
2022-10-08T11:23:44.083Z,85.00
2022-10-08T11:28:32.546Z,86.90
2022-10-08T11:32:57.244Z,85.20
2022-10-08T11:37:22.179Z,79.20
2022-10-08T11:41:59.903Z,76.10
2022-10-08T11:46:31.778Z,73.80
2022-10-08T11:50:54.344Z,71.70
2022-10-08T11:55:26.824Z,72.50
2022-10-08T12:00:08.558Z,73.60
2022-10-08T12:04:38.585Z,75.90
2022-10-08T12:09:07.615Z,79.00
2022-10-08T12:13:30.844Z,82.50
2022-10-08T12:18:00.083Z,86.00
2022-10-08T12:22:25.519Z,87.10
2022-10-08T12:27:18.786Z,88.00
2022-10-08T12:31:44.218Z,89.20
2022-10-08T12:36:26.603Z,88.70
2022-10-08T12:41:09.816Z,90.60
2022-10-08T12:45:47.985Z,91.60
2022-10-08T12:50:33.936Z,91.20
2022-10-08T12:54:58.923Z,90.20
2022-10-08T12:59:26.304Z,90.90
2022-10-08T13:04:07.385Z,91.30
2022-10-08T13:08:35.853Z,92.00
2022-10-08T13:13:07.224Z,92.60
2022-10-08T13:17:33.824Z,93.50
2022-10-08T13:22:02.901Z,93.90
2022-10-08T13:26:50.264Z,94.20
2022-10-08T13:31:24.182Z,95.30
2022-10-08T13:36:19.968Z,96.80
2022-10-08T13:40:51.571Z,99.80
2022-10-08T13:45:39.463Z,99.90
2022-10-08T13:50:02.417Z,99.90
2022-10-08T13:54:29.203Z,99.90
2022-10-08T13:58:51.824Z,99.90
2022-10-08T14:03:14.783Z,99.90
2022-10-08T14:07:42.545Z,99.90
2022-10-08T14:12:05.706Z,99.90
2022-10-08T14:16:28.361Z,99.90
2022-10-08T14:20:51.945Z,99.90
2022-10-08T14:25:22.424Z,99.90
2022-10-08T14:29:44.746Z,99.90
2022-10-08T14:34:07.823Z,99.90
2022-10-08T14:38:33.036Z,99.90
2022-10-08T14:42:55.644Z,99.90
2022-10-08T14:47:18.021Z,99.90
2022-10-08T14:51:40.783Z,99.90
2022-10-08T14:56:13.861Z,99.90
2022-10-08T15:00:36.729Z,99.90
2022-10-08T15:04:59.061Z,99.90
2022-10-08T15:09:22.624Z,99.90
2022-10-08T15:13:44.825Z,99.90
2022-10-08T15:18:08.240Z,99.90
2022-10-08T15:22:33.072Z,99.90
2022-10-08T15:26:56.328Z,99.90
2022-10-08T15:31:22.141Z,99.90
2022-10-08T15:35:44.975Z,99.90
2022-10-08T15:40:08.223Z,99.90
2022-10-08T15:44:32.543Z,99.90
2022-10-08T15:48:57.503Z,99.90
2022-10-08T15:53:23.381Z,99.90
2022-10-08T15:57:46.335Z,99.90
2022-10-08T16:02:15.541Z,99.90
2022-10-08T16:06:39.816Z,99.90
2022-10-08T16:11:19.471Z,99.90
2022-10-08T16:15:42.224Z,99.90
2022-10-08T16:20:05.385Z,99.90
2022-10-08T16:24:28.083Z,99.90
2022-10-08T16:28:55.483Z,99.90
2022-10-08T16:33:18.164Z,99.90
2022-10-08T16:37:40.624Z,99.90
2022-10-08T16:42:06.223Z,99.90
2022-10-08T16:46:36.863Z,99.90
2022-10-08T16:51:03.498Z,99.90
2022-10-08T16:55:26.101Z,99.90
2022-10-08T16:59:50.421Z,99.90
2022-10-08T17:04:14.807Z,99.90
2022-10-08T17:08:37.383Z,99.90
2022-10-08T17:12:59.903Z,99.90
2022-10-08T17:17:22.476Z,99.90
2022-10-08T17:21:45.244Z,99.90
2022-10-08T17:26:28.125Z,99.90
2022-10-08T17:30:50.500Z,99.90
2022-10-08T17:35:13.183Z,99.90
2022-10-08T17:39:35.946Z,99.90
2022-10-08T17:44:02.191Z,99.90
2022-10-08T17:48:25.082Z,99.90
2022-10-08T17:52:47.854Z,99.90
2022-10-08T17:57:10.523Z,99.90
2022-10-08T18:01:37.792Z,99.90
2022-10-08T18:06:02.617Z,99.90
2022-10-08T18:10:25.643Z,99.90
2022-10-08T18:14:49.624Z,99.90
2022-10-08T18:19:12.926Z,99.90
2022-10-08T18:23:36.926Z,99.90
2022-10-08T18:27:59.132Z,99.90
2022-10-08T18:32:21.575Z,99.90
2022-10-08T18:36:44.877Z,99.90
2022-10-08T18:41:24.243Z,99.90
2022-10-08T18:45:46.949Z,99.90
2022-10-08T18:50:09.638Z,99.90
2022-10-08T18:54:31.843Z,99.90
2022-10-08T18:58:56.924Z,99.90
2022-10-08T19:03:19.560Z,99.90
2022-10-08T19:07:41.984Z,99.90
2022-10-08T19:12:06.285Z,99.90
2022-10-08T19:16:29.666Z,99.90
2022-10-08T19:20:52.218Z,99.90
2022-10-08T19:25:14.931Z,99.90
2022-10-08T19:29:39.003Z,99.90
2022-10-08T19:34:07.473Z,99.90
2022-10-08T19:38:30.523Z,99.90
2022-10-08T19:42:52.930Z,99.90
2022-10-08T19:47:15.145Z,99.90
2022-10-08T19:51:39.243Z,99.90
2022-10-08T19:56:08.904Z,99.90
2022-10-08T20:00:31.523Z,99.90
2022-10-08T20:04:57.245Z,99.90
2022-10-08T20:09:23.564Z,99.90
2022-10-08T20:13:48.266Z,99.90
2022-10-08T20:18:11.316Z,99.90
2022-10-08T20:22:33.716Z,99.90
2022-10-08T20:26:56.387Z,99.90
2022-10-08T20:31:26.243Z,99.90
2022-10-08T20:35:48.898Z,99.90
2022-10-08T20:40:12.696Z,99.90
2022-10-08T20:44:35.244Z,99.90
2022-10-08T20:48:58.495Z,99.90
2022-10-08T20:53:21.123Z,99.90
2022-10-08T20:57:43.543Z,99.90
2022-10-08T21:02:06.864Z,99.90
2022-10-08T21:06:39.505Z,99.90
2022-10-08T21:11:04.535Z,99.90
2022-10-08T21:15:27.221Z,99.90
2022-10-08T21:19:49.618Z,99.90
2022-10-08T21:24:12.428Z,99.90
2022-10-08T21:28:35.943Z,99.90
2022-10-08T21:32:58.765Z,99.90
2022-10-08T21:37:21.426Z,99.90
2022-10-08T21:41:44.692Z,99.90
2022-10-08T21:46:08.925Z,99.90
2022-10-08T21:50:35.261Z,99.90
2022-10-08T21:54:58.285Z,99.90
2022-10-08T21:59:20.736Z,99.90
2022-10-08T22:03:43.148Z,99.90
2022-10-08T22:08:05.544Z,99.90
2022-10-08T22:12:28.223Z,99.90
2022-10-08T22:16:50.984Z,99.90
2022-10-08T22:21:20.942Z,99.90
2022-10-08T22:25:51.724Z,99.90
2022-10-08T22:30:14.346Z,99.90
2022-10-08T22:34:36.545Z,99.90
2022-10-08T22:38:59.683Z,99.90
2022-10-08T22:43:22.195Z,99.90
2022-10-08T22:47:46.703Z,99.90
2022-10-08T22:52:09.126Z,99.90
2022-10-08T22:56:32.323Z,99.90
2022-10-08T23:01:08.224Z,99.90
2022-10-08T23:05:30.163Z,99.90
2022-10-08T23:09:52.348Z,99.90
2022-10-08T23:14:14.784Z,99.90
2022-10-08T23:18:40.564Z,99.90
2022-10-08T23:23:03.064Z,99.90
2022-10-08T23:27:25.724Z,99.90
2022-10-08T23:31:48.375Z,99.90
2022-10-08T23:36:15.324Z,99.90
2022-10-08T23:40:37.764Z,99.90
2022-10-08T23:44:59.904Z,99.90
2022-10-08T23:49:22.384Z,99.90
2022-10-08T23:53:46.386Z,99.90
2022-10-08T23:58:08.524Z,99.90
